createdAt,value
2022-08-20T00:01:27.199Z,25.13
2022-08-20T00:03:55.888Z,26.97
2022-08-20T00:06:25.510Z,27.50
2022-08-20T00:08:54.076Z,30.67
2022-08-20T00:11:28.976Z,27.13
2022-08-20T00:14:02.874Z,30.60
2022-08-20T00:16:33.256Z,27.33
2022-08-20T00:19:02.057Z,29.30
2022-08-20T00:21:31.482Z,30.40
2022-08-20T00:24:00.490Z,30.30
2022-08-20T00:26:29.164Z,31.70
2022-08-20T00:28:59.111Z,30.33
2022-08-20T00:31:27.966Z,32.07
2022-08-20T00:33:59.335Z,31.37
2022-08-20T00:36:32.753Z,31.90
2022-08-20T00:39:01.951Z,29.30
2022-08-20T00:41:34.797Z,30.83
2022-08-20T00:44:14.937Z,33.63
2022-08-20T00:46:45.727Z,32.57
2022-08-20T00:49:18.946Z,32.53
2022-08-20T00:51:54.061Z,33.90
2022-08-20T00:54:26.196Z,35.40
2022-08-20T00:57:00.814Z,34.20
2022-08-20T00:59:33.700Z,33.73
2022-08-20T01:02:03.350Z,33.87
2022-08-20T01:04:34.650Z,32.43
2022-08-20T01:07:05.370Z,35.00
2022-08-20T01:09:58.654Z,34.67
2022-08-20T01:12:24.049Z,34.47
2022-08-20T01:14:54.183Z,33.90
2022-08-20T01:17:26.589Z,34.07
2022-08-20T01:19:58.699Z,34.60
2022-08-20T01:22:50.874Z,35.53
2022-08-20T01:25:25.048Z,33.23
2022-08-20T01:27:56.386Z,35.73
2022-08-20T01:30:30.208Z,37.27
2022-08-20T01:32:59.321Z,38.53
2022-08-20T01:35:29.851Z,38.10
2022-08-20T01:37:58.612Z,38.10
2022-08-20T01:40:46.814Z,37.53
2022-08-20T01:43:17.880Z,38.20
2022-08-20T01:45:46.971Z,36.40
2022-08-20T01:48:18.796Z,38.00
2022-08-20T01:50:55.551Z,39.03
2022-08-20T01:53:29.788Z,38.80
2022-08-20T01:55:58.410Z,38.00
2022-08-20T01:58:29.730Z,39.37
2022-08-20T02:00:58.714Z,39.80
2022-08-20T02:03:27.385Z,40.30
2022-08-20T02:05:56.130Z,39.00
2022-08-20T02:08:27.273Z,37.40
2022-08-20T02:10:57.296Z,42.67
2022-08-20T02:13:27.619Z,41.40
2022-08-20T02:16:00.415Z,41.20
2022-08-20T02:18:56.683Z,40.93
2022-08-20T03:17:19.924Z,40.37
2022-08-20T03:40:44.110Z,34.00
2022-08-20T03:45:08.060Z,34.77
2022-08-20T03:46:42.253Z,38.27
2022-08-20T03:49:22.182Z,38.30
2022-08-20T03:52:11.162Z,36.73
2022-08-20T03:55:02.661Z,36.47
2022-08-20T03:58:00.773Z,35.17
2022-08-20T04:00:57.182Z,34.37
2022-08-20T04:07:14.840Z,37.80
2022-08-20T04:10:01.938Z,36.73
2022-08-20T04:12:53.155Z,39.17
2022-08-20T04:15:32.433Z,41.47
2022-08-20T04:21:53.385Z,41.20
2022-08-20T04:24:32.505Z,41.80
2022-08-20T04:30:55.521Z,36.83
2022-08-20T04:33:38.707Z,36.30
2022-08-20T04:38:47.908Z,30.80
2022-08-20T04:41:24.162Z,31.50
2022-08-20T04:44:25.624Z,33.43
2022-08-20T04:50:50.981Z,28.80
2022-08-20T04:53:26.941Z,32.00
2022-08-20T04:55:59.207Z,27.87
2022-08-20T04:58:34.396Z,23.30
2022-08-20T05:01:11.006Z,30.73
2022-08-20T05:03:45.097Z,31.23
2022-08-20T05:06:21.068Z,25.10
2022-08-20T05:08:53.061Z,26.37
2022-08-20T05:11:35.226Z,28.00
2022-08-20T05:14:10.751Z,25.40
2022-08-20T05:16:41.781Z,24.83
2022-08-20T05:19:15.238Z,25.23
2022-08-20T05:21:54.903Z,28.20
2022-08-20T06:04:29.736Z,30.07
2022-08-20T06:07:08.297Z,30.17
2022-08-20T06:09:37.259Z,34.10
2022-08-20T06:12:08.950Z,34.10
2022-08-20T06:14:38.128Z,37.60
2022-08-20T06:17:09.996Z,35.43
2022-08-20T06:19:44.912Z,31.20
2022-08-20T06:22:20.727Z,29.20
2022-08-20T06:24:56.617Z,33.10
2022-08-20T06:27:26.278Z,28.43
2022-08-20T06:29:55.681Z,38.87
2022-08-20T06:32:32.137Z,39.47
2022-08-20T06:35:03.869Z,37.73
2022-08-20T06:37:33.832Z,36.90
2022-08-20T06:40:06.705Z,37.50
2022-08-20T06:42:35.973Z,40.50
2022-08-20T06:45:05.922Z,40.23
2022-08-20T06:47:35.305Z,39.37
2022-08-20T06:50:08.288Z,32.63
2022-08-20T06:52:51.993Z,41.80
2022-08-20T06:55:21.599Z,41.73
2022-08-20T06:57:57.436Z,41.97
2022-08-20T07:00:26.631Z,43.23
2022-08-20T07:02:55.508Z,83.67
2022-08-20T07:05:57.678Z,62.07
2022-08-20T07:08:26.882Z,89.33
2022-08-20T07:10:55.786Z,64.40
2022-08-20T07:13:25.523Z,49.80
2022-08-20T07:15:54.974Z,42.03
2022-08-20T07:18:28.761Z,38.67
2022-08-20T07:21:00.041Z,41.20
2022-08-20T07:23:44.432Z,46.60
2022-08-20T07:26:17.541Z,46.90
2022-08-20T07:28:46.417Z,40.90
2022-08-20T07:31:43.469Z,46.03
2022-08-20T07:34:16.103Z,34.80
2022-08-20T07:37:00.058Z,44.97
2022-08-20T07:39:30.033Z,46.30
2022-08-20T07:42:04.170Z,47.37
2022-08-20T07:44:35.794Z,38.33
2022-08-20T07:47:06.748Z,43.77
2022-08-20T07:49:43.034Z,42.83
2022-08-20T07:52:38.219Z,43.37
2022-08-20T07:55:17.052Z,40.90
2022-08-20T07:57:48.261Z,42.20
2022-08-20T08:00:19.795Z,48.80
2022-08-20T08:06:29.718Z,46.43
2022-08-20T08:09:27.974Z,42.53
2022-08-20T08:12:04.602Z,45.20
2022-08-20T08:14:41.668Z,37.57
2022-08-20T08:17:27.485Z,31.67
2022-08-20T08:20:11.986Z,37.70
2022-08-20T08:22:57.947Z,38.93
2022-08-20T08:25:33.994Z,44.27
2022-08-20T08:28:25.719Z,41.47
2022-08-20T08:30:57.491Z,37.80
2022-08-20T08:33:39.338Z,38.90
2022-08-20T08:39:09.590Z,40.00
2022-08-20T08:41:56.118Z,41.70
2022-08-20T08:44:39.961Z,34.60
2022-08-20T08:47:30.957Z,40.10
2022-08-20T08:50:03.117Z,33.40
2022-08-20T08:52:47.604Z,27.87
2022-08-20T08:55:34.769Z,38.97
2022-08-20T08:58:27.065Z,39.97
2022-08-20T09:01:05.796Z,38.27
2022-08-20T09:03:53.160Z,35.30
2022-08-20T09:06:38.059Z,40.33
2022-08-20T09:12:49.852Z,37.13
2022-08-20T09:15:30.519Z,31.20
2022-08-20T09:18:10.826Z,32.10
2022-08-20T09:20:56.180Z,27.03
2022-08-20T09:26:43.868Z,27.03
2022-08-20T09:29:19.674Z,32.90
2022-08-20T09:32:14.462Z,30.20
2022-08-20T09:34:56.082Z,35.80
2022-08-20T09:37:32.430Z,31.70
2022-08-20T09:40:05.477Z,28.30
2022-08-20T09:42:41.328Z,29.87
2022-08-20T09:45:17.927Z,28.83
2022-08-20T09:47:56.447Z,32.43
2022-08-20T09:50:30.804Z,31.13
2022-08-20T09:53:03.428Z,32.70
2022-08-20T09:55:45.478Z,32.43
2022-08-20T09:58:24.098Z,30.57
2022-08-20T10:00:57.700Z,27.93
2022-08-20T10:03:28.504Z,24.60
2022-08-20T10:06:08.604Z,26.27
2022-08-20T10:08:58.054Z,31.80
2022-08-20T10:11:49.873Z,30.10
2022-08-20T10:14:56.678Z,28.07
2022-08-20T10:17:42.734Z,29.07
2022-08-20T10:20:25.918Z,26.40
2022-08-20T10:22:57.940Z,32.00
2022-08-20T10:25:41.059Z,30.80
2022-08-20T10:28:32.356Z,31.97
2022-08-20T10:31:02.272Z,33.80
2022-08-20T10:33:32.358Z,31.87
2022-08-20T10:36:09.171Z,33.03
2022-08-20T10:38:41.206Z,29.77
2022-08-20T10:41:10.648Z,28.40
2022-08-20T10:43:41.044Z,33.07
2022-08-20T10:46:10.382Z,33.57
2022-08-20T10:48:40.007Z,34.00
2022-08-20T10:51:10.255Z,34.97
2022-08-20T10:53:46.547Z,30.50
2022-08-20T10:56:18.344Z,33.33
2022-08-20T10:58:50.084Z,35.87
2022-08-20T11:01:31.409Z,35.63
2022-08-20T11:07:17.595Z,36.50
2022-08-20T11:09:57.258Z,36.30
2022-08-20T11:12:26.265Z,38.60
2022-08-20T11:14:59.234Z,38.70
2022-08-20T11:17:47.326Z,34.70
2022-08-20T11:20:19.060Z,35.20
2022-08-20T11:22:47.801Z,37.23
2022-08-20T11:25:17.903Z,37.00
2022-08-20T11:27:49.379Z,34.33
2022-08-20T11:30:44.892Z,36.47
2022-08-20T11:33:50.955Z,35.53
2022-08-20T11:44:19.965Z,31.90
2022-08-20T11:46:50.879Z,34.20
2022-08-20T11:49:58.591Z,30.13
2022-08-20T11:52:47.576Z,35.33
2022-08-20T11:59:36.967Z,34.33
2022-08-20T12:02:28.918Z,34.00
2022-08-20T12:11:46.696Z,38.07
2022-08-20T12:18:22.538Z,36.37
2022-08-20T12:40:48.467Z,41.37
2022-08-20T12:47:01.811Z,44.10
2022-08-20T14:26:29.556Z,38.70
2022-08-20T14:31:43.594Z,38.77
2022-08-20T14:34:21.011Z,39.20
2022-08-20T14:36:52.987Z,40.60
2022-08-20T14:39:23.168Z,38.17
2022-08-20T14:41:55.758Z,39.80
2022-08-20T14:44:25.849Z,38.87
2022-08-20T14:46:57.717Z,35.90
2022-08-20T14:49:33.337Z,36.40
2022-08-20T18:36:28.095Z,34.87
2022-08-20T18:57:54.679Z,37.07
2022-08-20T19:08:54.313Z,36.33
2022-08-20T19:12:54.663Z,39.70
2022-08-20T19:16:36.464Z,40.17
2022-08-20T19:22:55.899Z,37.60
2022-08-20T19:25:36.931Z,39.57
2022-08-20T19:29:15.101Z,38.40
2022-08-20T19:50:03.508Z,44.40
2022-08-20T19:53:18.227Z,44.10
2022-08-20T19:56:23.952Z,43.73
2022-08-20T19:59:28.624Z,44.57
2022-08-20T20:02:30.011Z,45.80
2022-08-20T20:16:19.310Z,46.20
2022-08-20T20:20:04.421Z,43.00
2022-08-20T20:23:45.729Z,44.37
2022-08-20T20:30:53.598Z,44.23
2022-08-20T20:34:10.029Z,42.17
2022-08-20T20:37:12.793Z,42.90
2022-08-20T20:40:01.397Z,41.60
2022-08-20T20:43:32.219Z,43.00
2022-08-20T20:47:27.593Z,42.77
2022-08-20T20:49:56.797Z,45.50
2022-08-20T20:53:01.627Z,43.17
2022-08-20T20:58:53.806Z,42.53
2022-08-20T21:08:47.755Z,44.87
2022-08-20T21:16:54.043Z,41.77
2022-08-20T21:23:10.195Z,43.97
2022-08-20T21:59:07.136Z,43.20
2022-08-20T22:02:47.007Z,42.33
2022-08-20T22:41:57.861Z,37.43
2022-08-20T22:44:26.786Z,38.10
2022-08-20T22:46:58.508Z,39.00
2022-08-20T22:49:31.889Z,39.00
2022-08-20T22:52:01.027Z,37.10
2022-08-20T22:54:31.117Z,36.10
2022-08-20T22:57:01.291Z,37.13
2022-08-20T22:59:29.999Z,39.10
2022-08-20T23:02:00.432Z,38.83
2022-08-20T23:04:32.737Z,38.57
2022-08-20T23:07:03.042Z,39.87
2022-08-20T23:09:32.486Z,41.77
2022-08-20T23:12:02.530Z,39.23
2022-08-20T23:14:32.213Z,37.60
2022-08-20T23:17:07.327Z,39.60
2022-08-20T23:19:39.958Z,39.87
2022-08-20T23:22:09.786Z,39.90
2022-08-20T23:24:39.996Z,38.50
2022-08-20T23:27:18.625Z,38.87
2022-08-20T23:29:47.965Z,40.53
2022-08-20T23:32:16.913Z,40.30
2022-08-20T23:34:45.805Z,40.33
2022-08-20T23:37:15.106Z,39.03
2022-08-20T23:39:46.440Z,40.93
2022-08-20T23:42:17.561Z,39.07
2022-08-20T23:44:46.483Z,41.60
2022-08-20T23:47:21.186Z,37.00
2022-08-20T23:49:50.323Z,39.70
2022-08-20T23:52:19.456Z,38.90
2022-08-20T23:54:48.267Z,39.37
2022-08-20T23:57:20.956Z,40.97
2022-08-20T23:59:51.355Z,36.00
